createdAt,value
2024-04-05T00:00:45.703Z,76.22
2024-04-05T00:02:48.549Z,76.48
2024-04-05T00:04:51.526Z,76.38
2024-04-05T00:06:54.657Z,76.61
2024-04-05T00:08:57.377Z,77.63
2024-04-05T00:11:00.434Z,77.11
2024-04-05T00:13:03.209Z,78.00
2024-04-05T00:15:07.483Z,78.08
2024-04-05T00:17:10.247Z,77.84
2024-04-05T00:19:13.425Z,77.83
2024-04-05T00:21:16.831Z,78.54
2024-04-05T00:23:19.663Z,78.79
2024-04-05T00:25:23.430Z,79.07
2024-04-05T00:27:27.920Z,79.63
2024-04-05T00:29:30.788Z,79.34
2024-04-05T00:31:34.814Z,79.99
2024-04-05T00:33:38.218Z,79.38
2024-04-05T00:35:48.799Z,79.09
2024-04-05T00:37:52.280Z,79.59
2024-04-05T00:39:55.126Z,79.29
2024-04-05T00:41:58.159Z,79.63
2024-04-05T00:44:00.988Z,80.51
2024-04-05T00:46:05.924Z,79.99
2024-04-05T00:48:09.309Z,81.23
2024-04-05T00:50:12.292Z,81.32
2024-04-05T00:52:15.704Z,81.33
2024-04-05T00:54:20.777Z,81.54
2024-04-05T00:56:25.426Z,81.67
2024-04-05T00:58:28.692Z,81.72
2024-04-05T01:00:32.352Z,81.83
2024-04-05T01:02:35.150Z,81.77
2024-04-05T01:04:38.299Z,81.30
2024-04-05T01:06:42.402Z,81.59
2024-04-05T01:08:45.666Z,81.33
2024-04-05T01:10:48.737Z,81.74
2024-04-05T01:13:04.051Z,81.47
2024-04-05T01:15:07.074Z,81.15
2024-04-05T01:17:09.846Z,81.55
2024-04-05T01:19:16.801Z,81.29
2024-04-05T01:21:21.543Z,81.45
2024-04-05T01:23:27.746Z,81.03
2024-04-05T01:25:31.728Z,81.57
2024-04-05T01:27:34.812Z,81.63
2024-04-05T01:29:37.755Z,81.59
2024-04-05T01:31:40.732Z,81.29
2024-04-05T01:33:43.902Z,81.57
2024-04-05T01:35:46.835Z,81.86
2024-04-05T01:37:50.063Z,81.59
2024-04-05T01:39:52.828Z,81.28
2024-04-05T01:41:55.634Z,80.96
2024-04-05T01:43:58.779Z,80.98
2024-04-05T01:46:01.432Z,80.83
2024-04-05T01:48:04.716Z,81.28
2024-04-05T01:50:07.950Z,80.92
2024-04-05T01:52:10.926Z,81.44
2024-04-05T01:54:13.893Z,81.37
2024-04-05T01:56:16.897Z,81.44
2024-04-05T01:58:20.041Z,82.17
2024-04-05T02:00:23.123Z,81.98
2024-04-05T02:02:27.778Z,82.35
2024-04-05T02:04:31.431Z,82.46
2024-04-05T02:06:35.375Z,82.93
2024-04-05T02:08:38.015Z,82.38
2024-04-05T02:10:41.100Z,82.74
2024-04-05T02:12:44.249Z,82.57
2024-04-05T02:14:47.413Z,82.42
2024-04-05T02:16:50.350Z,82.35
2024-04-05T02:18:53.388Z,82.42
2024-04-05T02:20:57.583Z,82.13
2024-04-05T02:23:01.039Z,82.49
2024-04-05T02:25:05.508Z,81.63
2024-04-05T02:27:08.918Z,82.25
2024-04-05T02:29:12.584Z,82.52
2024-04-05T02:31:15.413Z,83.13
2024-04-05T02:33:18.539Z,83.23
2024-04-05T02:35:22.583Z,83.10
2024-04-05T02:37:25.555Z,83.15
2024-04-05T02:39:28.660Z,83.50
2024-04-05T02:41:31.893Z,83.20
2024-04-05T02:43:34.903Z,82.86
2024-04-05T02:45:37.581Z,83.14
2024-04-05T02:47:40.509Z,82.60
2024-04-05T02:49:43.368Z,82.59
2024-04-05T02:51:46.527Z,82.45
2024-04-05T02:53:49.442Z,82.54
2024-04-05T02:55:52.767Z,82.79
2024-04-05T02:57:55.738Z,83.20
2024-04-05T02:59:58.779Z,83.23
2024-04-05T03:02:01.452Z,83.42
2024-04-05T03:04:04.546Z,83.21
2024-04-05T03:06:07.516Z,83.26
2024-04-05T03:08:10.420Z,83.02
2024-04-05T03:10:13.217Z,83.12
2024-04-05T03:12:16.494Z,83.12
2024-04-05T03:14:19.277Z,83.32
2024-04-05T03:16:24.347Z,82.75
2024-04-05T03:18:27.264Z,83.11
2024-04-05T03:20:30.470Z,82.79
2024-04-05T03:22:33.734Z,82.82
2024-04-05T03:24:36.419Z,83.96
2024-04-05T03:26:39.331Z,83.85
2024-04-05T03:28:45.223Z,83.99
2024-04-05T03:30:47.927Z,83.54
2024-04-05T03:32:50.898Z,83.10
2024-04-05T03:34:54.313Z,83.38
2024-04-05T03:36:57.275Z,83.13
2024-04-05T03:39:01.331Z,83.55
2024-04-05T03:41:04.440Z,83.85
2024-04-05T03:43:08.020Z,83.77
2024-04-05T03:45:10.782Z,84.12
2024-04-05T03:47:13.861Z,84.25
2024-04-05T03:49:17.091Z,84.02
2024-04-05T03:51:20.063Z,83.63
2024-04-05T03:53:23.112Z,83.85
2024-04-05T03:55:26.013Z,83.50
2024-04-05T03:57:28.609Z,83.58
2024-04-05T03:59:31.728Z,83.78
2024-04-05T04:01:34.570Z,83.61
2024-04-05T04:03:37.536Z,83.21
2024-04-05T04:05:40.660Z,83.13
2024-04-05T04:07:43.607Z,83.01
2024-04-05T04:09:46.423Z,83.25
2024-04-05T04:11:49.396Z,82.91
2024-04-05T04:13:52.081Z,83.02
2024-04-05T04:15:55.774Z,82.86
2024-04-05T04:17:58.516Z,82.87
2024-04-05T04:20:04.660Z,82.46
2024-04-05T04:22:07.860Z,82.51
2024-04-05T04:24:11.715Z,82.28
2024-04-05T04:26:16.223Z,82.05
2024-04-05T04:28:19.216Z,82.12
2024-04-05T04:30:22.132Z,82.31
2024-04-05T04:32:25.079Z,82.29
2024-04-05T04:34:28.283Z,81.68
2024-04-05T04:36:31.262Z,81.21
2024-04-05T04:38:34.340Z,81.23
2024-04-05T04:40:37.921Z,80.98
2024-04-05T04:42:40.908Z,80.71
2024-04-05T04:44:43.859Z,80.62
2024-04-05T04:46:46.705Z,80.20
2024-04-05T04:48:49.812Z,79.87
2024-04-05T04:50:55.817Z,80.00
2024-04-05T04:52:58.703Z,79.93
2024-04-05T04:55:02.694Z,79.84
2024-04-05T04:57:05.945Z,79.90
2024-04-05T04:59:09.301Z,80.07
2024-04-05T05:01:12.487Z,79.36
2024-04-05T05:03:15.229Z,79.97
2024-04-05T05:05:18.978Z,80.12
2024-04-05T05:07:22.149Z,79.85
2024-04-05T05:09:25.171Z,79.77
2024-04-05T05:11:28.090Z,79.50
2024-04-05T05:13:31.140Z,78.34
2024-04-05T05:15:34.210Z,76.52
2024-04-05T05:17:37.793Z,75.45
2024-04-05T05:19:40.966Z,73.26
2024-04-05T05:21:43.962Z,71.82
2024-04-05T05:23:47.020Z,70.23
2024-04-05T05:25:49.804Z,69.17
2024-04-05T05:27:52.923Z,67.33
2024-04-05T05:29:55.848Z,67.81
2024-04-05T05:31:58.944Z,66.94
2024-04-05T05:34:02.032Z,66.32
2024-04-05T05:36:05.428Z,65.72
2024-04-05T05:38:08.387Z,64.70
2024-04-05T05:40:11.336Z,64.27
2024-04-05T05:42:14.544Z,64.84
2024-04-05T05:44:17.706Z,62.50
2024-04-05T05:46:20.400Z,61.52
2024-04-05T05:48:23.113Z,59.74
2024-04-05T05:50:26.363Z,60.84
2024-04-05T05:52:29.506Z,59.94
2024-04-05T05:54:32.677Z,60.17
2024-04-05T05:56:45.012Z,59.61
2024-04-05T06:00:57.133Z,58.42
2024-04-05T06:02:59.956Z,57.85
2024-04-05T06:05:04.703Z,58.23
2024-04-05T06:07:07.892Z,58.72
2024-04-05T06:09:14.202Z,57.10
2024-04-05T06:11:17.182Z,56.96
2024-04-05T06:13:20.073Z,56.54
2024-04-05T06:15:23.164Z,56.54
2024-04-05T06:17:26.745Z,56.02
2024-04-05T06:19:29.679Z,56.56
2024-04-05T06:21:32.970Z,56.51
2024-04-05T06:23:35.706Z,56.00
2024-04-05T06:25:38.491Z,56.89
2024-04-05T06:27:42.590Z,55.94
2024-04-05T06:29:50.156Z,55.73
2024-04-05T06:31:53.338Z,55.87
2024-04-05T06:33:56.248Z,55.14
2024-04-05T06:36:00.197Z,53.91
2024-04-05T06:38:03.786Z,54.75
2024-04-05T06:40:08.784Z,53.46
2024-04-05T06:42:11.813Z,53.21
2024-04-05T06:44:15.327Z,53.46
2024-04-05T06:46:18.175Z,53.26
2024-04-05T06:48:21.351Z,53.91
2024-04-05T06:50:25.558Z,52.08
2024-04-05T06:52:30.933Z,51.50
2024-04-05T06:54:44.594Z,50.48
2024-04-05T06:56:47.791Z,51.08
2024-04-05T06:58:50.671Z,51.58
2024-04-05T07:00:53.651Z,50.70
2024-04-05T07:02:56.620Z,52.03
2024-04-05T07:04:59.374Z,51.54
2024-04-05T07:07:02.659Z,50.51
2024-04-05T07:09:08.663Z,49.48
2024-04-05T07:11:13.416Z,48.31
2024-04-05T07:13:16.389Z,47.50
2024-04-05T07:15:21.031Z,47.33
2024-04-05T07:17:24.364Z,48.13
2024-04-05T07:19:27.105Z,48.07
2024-04-05T07:21:29.880Z,47.06
2024-04-05T07:23:33.801Z,47.19
2024-04-05T07:25:36.880Z,46.37
2024-04-05T07:27:41.540Z,45.84
2024-04-05T07:29:45.549Z,45.46
2024-04-05T07:31:49.326Z,44.68
2024-04-05T07:33:52.499Z,43.54
2024-04-05T07:35:57.231Z,44.17
2024-04-05T07:38:00.039Z,44.90
2024-04-05T07:40:03.741Z,44.67
2024-04-05T07:42:06.686Z,44.13
2024-04-05T07:44:09.987Z,43.34
2024-04-05T07:46:13.073Z,42.44
2024-04-05T07:48:16.058Z,42.18
2024-04-05T07:50:19.849Z,42.21
2024-04-05T07:52:24.805Z,43.88
2024-04-05T07:54:28.118Z,42.79
2024-04-05T07:56:32.642Z,41.82
2024-04-05T07:58:35.794Z,40.72
2024-04-05T08:00:39.572Z,39.26
2024-04-05T08:02:50.039Z,38.32
2024-04-05T08:04:55.824Z,38.25
2024-04-05T08:06:59.426Z,38.13
2024-04-05T08:09:02.692Z,38.74
2024-04-05T08:11:06.663Z,38.93
2024-04-05T08:13:09.773Z,37.20
2024-04-05T08:15:13.312Z,36.00
2024-04-05T08:17:16.369Z,36.48
2024-04-05T08:19:19.314Z,36.69
2024-04-05T08:21:22.555Z,35.65
2024-04-05T08:23:26.250Z,37.19
2024-04-05T08:25:29.773Z,37.08
2024-04-05T08:27:33.313Z,37.05
2024-04-05T08:29:37.617Z,37.04
2024-04-05T08:31:40.365Z,35.68
2024-04-05T08:33:43.134Z,37.31
2024-04-05T08:35:52.833Z,38.18
2024-04-05T08:38:03.034Z,37.96
2024-04-05T08:40:08.341Z,39.11
2024-04-05T08:42:19.395Z,41.14
2024-04-05T08:44:22.342Z,39.48
2024-04-05T08:46:25.661Z,38.22
2024-04-05T08:48:33.566Z,38.71
2024-04-05T08:50:37.894Z,38.84
2024-04-05T08:52:41.022Z,39.06
2024-04-05T08:54:44.219Z,39.60
2024-04-05T08:56:50.828Z,38.00
2024-04-05T08:58:53.849Z,37.71
2024-04-05T09:00:57.405Z,36.21
2024-04-05T09:03:01.114Z,37.57
2024-04-05T09:05:05.076Z,36.22
2024-04-05T09:07:08.107Z,35.87
2024-04-05T09:09:10.852Z,35.82
2024-04-05T09:11:22.703Z,35.64
2024-04-05T09:13:25.645Z,34.45
2024-04-05T09:15:30.027Z,36.83
2024-04-05T09:17:34.453Z,36.45
2024-04-05T09:19:37.491Z,37.77
2024-04-05T09:21:43.281Z,36.17
2024-04-05T09:23:50.234Z,34.19
2024-04-05T09:26:01.312Z,35.67
2024-04-05T09:28:10.545Z,35.21
2024-04-05T09:30:16.986Z,33.57
2024-04-05T09:32:20.438Z,33.43
2024-04-05T09:34:26.592Z,33.83
2024-04-05T09:36:30.723Z,34.08
2024-04-05T09:38:35.096Z,32.67
2024-04-05T09:40:40.401Z,32.78
2024-04-05T09:42:43.976Z,32.69
2024-04-05T09:44:47.376Z,34.67
2024-04-05T09:46:53.140Z,34.88
2024-04-05T09:48:56.275Z,33.98
2024-04-05T09:51:03.453Z,34.15
2024-04-05T09:53:08.451Z,32.69
2024-04-05T09:55:13.472Z,32.10
2024-04-05T09:57:18.971Z,33.22
2024-04-05T09:59:26.599Z,32.17
2024-04-05T10:01:30.829Z,31.31
2024-04-05T10:03:38.392Z,30.32
2024-04-05T10:05:41.462Z,30.80
2024-04-05T10:07:48.412Z,29.88
2024-04-05T10:09:51.394Z,29.05
2024-04-05T10:11:55.578Z,29.15
2024-04-05T10:14:02.854Z,28.09
2024-04-05T10:16:07.146Z,28.36
2024-04-05T10:18:10.109Z,28.51
2024-04-05T10:20:16.594Z,28.58
2024-04-05T10:22:23.584Z,28.56
2024-04-05T10:24:27.598Z,27.80
2024-04-05T10:26:33.759Z,27.65
2024-04-05T10:28:37.707Z,27.87
2024-04-05T10:30:41.170Z,27.90
2024-04-05T10:32:55.947Z,28.64
2024-04-05T10:35:10.835Z,28.50
2024-04-05T10:37:17.126Z,28.21
2024-04-05T10:39:20.175Z,29.11
2024-04-05T10:41:23.245Z,28.77
2024-04-05T10:43:27.215Z,28.81
2024-04-05T10:45:30.518Z,28.45
2024-04-05T10:47:35.227Z,28.52
2024-04-05T10:49:39.263Z,29.37
2024-04-05T10:51:46.654Z,28.85
2024-04-05T10:53:51.646Z,29.04
2024-04-05T10:55:55.600Z,28.89
2024-04-05T10:58:02.412Z,28.68
2024-04-05T11:00:11.729Z,28.76
2024-04-05T11:02:15.073Z,28.80
2024-04-05T11:04:24.148Z,29.14
2024-04-05T11:06:27.218Z,28.19
2024-04-05T11:08:31.844Z,28.33
2024-04-05T11:10:37.073Z,26.95
2024-04-05T11:12:40.337Z,28.08
2024-04-05T11:14:43.289Z,26.52
2024-04-05T11:16:46.349Z,26.31
2024-04-05T11:18:49.886Z,25.74
2024-04-05T11:20:52.770Z,26.16
2024-04-05T11:23:03.480Z,26.46
2024-04-05T11:25:08.003Z,28.53
2024-04-05T11:27:19.621Z,28.39
2024-04-05T11:29:22.777Z,28.76
2024-04-05T11:31:27.263Z,28.83
2024-04-05T11:33:30.306Z,27.61
2024-04-05T11:35:40.379Z,27.52
2024-04-05T11:37:44.892Z,27.76
2024-04-05T11:39:48.741Z,27.73
2024-04-05T11:41:52.518Z,28.09
2024-04-05T11:43:55.857Z,28.25
2024-04-05T11:45:59.078Z,26.84
2024-04-05T11:48:02.744Z,26.04
2024-04-05T11:50:06.974Z,25.93
2024-04-05T11:52:11.536Z,26.14
2024-04-05T11:54:14.571Z,26.75
2024-04-05T11:56:17.720Z,27.59
2024-04-05T11:58:20.693Z,27.23
2024-04-05T12:00:25.110Z,26.44
2024-04-05T12:02:28.783Z,26.75
2024-04-05T12:04:31.733Z,28.02
2024-04-05T12:06:34.788Z,28.16
2024-04-05T12:08:37.698Z,26.86
2024-04-05T12:10:41.031Z,27.69
2024-04-05T12:12:44.437Z,27.56
2024-04-05T12:14:47.475Z,28.14
2024-04-05T12:16:50.538Z,28.36
2024-04-05T12:18:53.520Z,27.99
2024-04-05T12:20:56.167Z,28.58
2024-04-05T12:22:59.218Z,28.34
2024-04-05T12:25:02.515Z,28.50
2024-04-05T12:27:15.541Z,27.86
2024-04-05T12:29:19.986Z,28.72
2024-04-05T12:31:23.175Z,29.50
2024-04-05T12:33:26.019Z,28.75
2024-04-05T12:35:30.966Z,29.09
2024-04-05T12:37:40.493Z,28.95
2024-04-05T12:39:47.335Z,29.47
2024-04-05T12:41:52.595Z,30.67
2024-04-05T12:43:55.733Z,30.91
2024-04-05T12:46:05.969Z,30.93
2024-04-05T12:48:09.430Z,30.80
2024-04-05T12:50:12.573Z,31.01
2024-04-05T12:52:15.696Z,30.49
2024-04-05T12:54:18.631Z,31.04
2024-04-05T12:56:21.629Z,30.47
2024-04-05T12:58:29.095Z,30.21
2024-04-05T13:00:32.409Z,31.45
2024-04-05T13:02:35.222Z,31.41
2024-04-05T13:04:38.108Z,31.82
2024-04-05T13:06:41.290Z,31.99
2024-04-05T13:08:45.857Z,32.19
2024-04-05T13:10:55.909Z,32.32
2024-04-05T13:12:58.740Z,32.43
2024-04-05T13:15:01.503Z,32.05
2024-04-05T13:17:04.660Z,32.62
2024-04-05T13:19:08.270Z,33.22
2024-04-05T13:21:13.535Z,33.96
2024-04-05T13:23:16.658Z,33.61
2024-04-05T13:25:20.309Z,33.74
2024-04-05T13:27:23.965Z,33.92
2024-04-05T13:29:27.021Z,34.31
2024-04-05T13:31:30.719Z,34.15
2024-04-05T13:33:34.449Z,33.96
2024-04-05T13:35:37.536Z,33.84
2024-04-05T13:37:40.487Z,33.97
2024-04-05T13:39:43.838Z,33.81
2024-04-05T13:41:46.746Z,33.70
2024-04-05T13:43:49.567Z,33.64
2024-04-05T13:46:12.844Z,33.43
2024-04-05T13:48:15.743Z,33.63
2024-04-05T13:50:21.527Z,33.79
2024-04-05T13:52:24.942Z,33.50
2024-04-05T13:54:31.338Z,34.03
2024-04-05T13:56:35.775Z,33.62
2024-04-05T13:58:42.055Z,33.67
2024-04-05T14:00:45.896Z,33.58
2024-04-05T14:02:52.846Z,33.98
2024-04-05T14:05:00.287Z,33.83
2024-04-05T14:07:03.398Z,34.51
2024-04-05T14:09:12.214Z,34.24
2024-04-05T14:11:16.888Z,33.45
2024-04-05T14:13:20.271Z,33.67
2024-04-05T14:15:22.918Z,33.68
2024-04-05T14:17:25.941Z,33.32
2024-04-05T14:19:29.175Z,33.66
2024-04-05T14:21:32.721Z,33.65
2024-04-05T14:23:36.679Z,34.56
2024-04-05T14:25:45.879Z,33.75
2024-04-05T14:27:48.785Z,34.24
2024-04-05T14:29:51.894Z,34.38
2024-04-05T14:31:54.670Z,34.48
2024-04-05T14:33:59.835Z,34.49
2024-04-05T14:36:08.780Z,34.57
2024-04-05T14:38:11.757Z,34.59
2024-04-05T14:40:15.821Z,34.79
2024-04-05T14:42:20.258Z,35.29
2024-04-05T14:44:24.150Z,35.10
2024-04-05T14:46:26.815Z,35.25
2024-04-05T14:48:30.773Z,35.45
2024-04-05T14:50:36.841Z,35.45
2024-04-05T14:52:40.044Z,35.36
2024-04-05T14:54:43.119Z,36.43
2024-04-05T14:56:48.367Z,36.93
2024-04-05T14:58:51.227Z,36.95
2024-04-05T15:00:58.095Z,37.60
2024-04-05T15:03:01.055Z,37.10
2024-04-05T15:05:04.611Z,36.77
2024-04-05T15:07:07.932Z,36.76
2024-04-05T15:09:13.067Z,36.97
2024-04-05T15:11:16.776Z,36.86
2024-04-05T15:13:22.100Z,37.13
2024-04-05T15:15:24.746Z,37.11
2024-04-05T15:17:27.515Z,35.96
2024-04-05T15:19:30.510Z,36.53
2024-04-05T15:21:33.215Z,36.82
2024-04-05T15:23:37.940Z,36.53
2024-04-05T15:25:41.058Z,36.74
2024-04-05T15:27:44.273Z,36.60
2024-04-05T15:29:47.012Z,36.82
2024-04-05T15:31:49.693Z,36.75
2024-04-05T15:33:52.961Z,37.12
2024-04-05T15:36:00.661Z,37.27
2024-04-05T15:38:03.914Z,37.01
2024-04-05T15:40:06.904Z,37.11
2024-04-05T15:42:09.666Z,37.62
2024-04-05T15:44:12.958Z,37.70
2024-04-05T15:46:18.846Z,37.19
2024-04-05T15:48:21.740Z,37.06
2024-04-05T15:50:29.811Z,37.34
2024-04-05T15:52:41.171Z,37.33
2024-04-05T15:54:44.465Z,37.14
2024-04-05T15:56:47.215Z,36.97
2024-04-05T15:58:50.178Z,37.18
2024-04-05T16:00:53.016Z,36.96
2024-04-05T16:02:55.897Z,37.01
2024-04-05T16:04:58.705Z,37.82
2024-04-05T16:07:01.465Z,37.82
2024-04-05T16:09:04.219Z,37.88
2024-04-05T16:11:07.567Z,37.83
2024-04-05T16:13:11.150Z,37.67
2024-04-05T16:15:14.448Z,38.21
2024-04-05T16:17:17.494Z,37.95
2024-04-05T16:19:20.509Z,37.19
2024-04-05T16:21:23.769Z,37.05
2024-04-05T16:25:31.070Z,37.64
2024-04-05T16:27:34.615Z,37.65
2024-04-05T16:29:40.616Z,37.18
2024-04-05T16:31:43.371Z,37.14
2024-04-05T16:33:46.552Z,37.61
2024-04-05T16:35:50.385Z,37.69
2024-04-05T16:37:54.224Z,37.67
2024-04-05T16:39:57.384Z,38.02
2024-04-05T16:42:00.057Z,37.77
2024-04-05T16:44:03.114Z,37.59
2024-04-05T16:46:11.987Z,38.33
2024-04-05T16:48:14.961Z,38.42
2024-04-05T16:50:17.890Z,38.44
2024-04-05T16:52:21.444Z,38.06
2024-04-05T16:54:24.253Z,38.90
2024-04-05T16:56:27.006Z,38.34
2024-04-05T16:58:30.277Z,39.28
2024-04-05T17:00:37.555Z,38.88
2024-04-05T17:02:43.092Z,39.21
2024-04-05T17:04:48.753Z,38.89
2024-04-05T17:06:52.510Z,39.94
2024-04-05T17:08:55.596Z,39.89
2024-04-05T17:10:59.407Z,39.51
2024-04-05T17:13:06.224Z,39.74
2024-04-05T17:15:09.687Z,40.11
2024-04-05T17:17:15.047Z,40.21
2024-04-05T17:19:17.936Z,40.71
2024-04-05T17:21:20.587Z,40.68
2024-04-05T17:23:26.175Z,41.04
2024-04-05T17:25:29.023Z,41.03
2024-04-05T17:27:32.042Z,41.33
2024-04-05T17:29:35.106Z,41.35
2024-04-05T17:31:37.953Z,41.45
2024-04-05T17:33:41.460Z,41.79
2024-04-05T17:35:50.200Z,41.27
2024-04-05T17:37:53.134Z,41.58
2024-04-05T17:41:50.910Z,41.98
2024-04-05T17:43:58.164Z,42.33
2024-04-05T17:46:00.934Z,42.14
2024-04-05T17:48:05.898Z,42.71
2024-04-05T17:50:08.881Z,42.90
2024-04-05T17:52:11.603Z,42.23
2024-04-05T17:54:14.278Z,42.30
2024-04-05T17:56:17.761Z,43.31
2024-04-05T17:58:21.372Z,42.90
2024-04-05T18:00:24.227Z,43.38
2024-04-05T18:02:27.230Z,42.90
2024-04-05T18:04:31.948Z,43.46
2024-04-05T18:06:35.021Z,43.11
2024-04-05T18:08:40.783Z,43.49
2024-04-05T18:10:43.762Z,44.22
2024-04-05T18:12:47.570Z,44.43
2024-04-05T18:14:50.814Z,43.93
2024-04-05T18:16:54.414Z,44.55
2024-04-05T18:18:57.368Z,44.20
2024-04-05T18:21:00.431Z,44.81
2024-04-05T18:23:03.302Z,44.57
2024-04-05T18:25:06.465Z,45.21
2024-04-05T18:27:11.612Z,44.81
2024-04-05T18:29:14.367Z,45.39
2024-04-05T18:31:17.451Z,45.69
2024-04-05T18:33:20.707Z,45.86
2024-04-05T18:35:23.456Z,45.63
2024-04-05T18:37:27.311Z,45.49
2024-04-05T18:39:30.274Z,45.94
2024-04-05T18:41:33.418Z,46.07
2024-04-05T18:43:36.399Z,46.09
2024-04-05T18:45:39.128Z,45.86
2024-04-05T18:47:42.142Z,46.19
2024-04-05T18:49:53.753Z,46.26
2024-04-05T18:51:57.238Z,46.33
2024-04-05T18:54:00.793Z,46.72
2024-04-05T18:56:04.648Z,46.76
2024-04-05T18:58:16.252Z,46.68
2024-04-05T19:00:21.076Z,46.98
2024-04-05T19:02:24.771Z,47.49
2024-04-05T19:04:32.741Z,47.44
2024-04-05T19:06:36.330Z,47.59
2024-04-05T19:08:40.062Z,47.94
2024-04-05T19:10:43.277Z,47.62
2024-04-05T19:12:46.633Z,47.75
2024-04-05T19:14:50.469Z,47.77
2024-04-05T19:16:53.292Z,47.88
2024-04-05T19:18:56.105Z,47.96
2024-04-05T19:21:02.897Z,48.42
2024-04-05T19:23:08.332Z,48.26
2024-04-05T19:25:13.987Z,48.40
2024-04-05T19:27:19.310Z,48.53
2024-04-05T19:29:23.564Z,48.35
2024-04-05T19:31:29.026Z,48.57
2024-04-05T19:33:34.867Z,48.86
2024-04-05T19:35:37.766Z,48.58
2024-04-05T19:37:41.589Z,49.24
2024-04-05T19:39:51.664Z,49.13
2024-04-05T19:41:55.575Z,49.19
2024-04-05T19:43:58.908Z,49.79
2024-04-05T19:46:04.814Z,49.73
2024-04-05T19:48:07.872Z,49.71
2024-04-05T19:50:10.799Z,50.01
2024-04-05T19:52:13.493Z,49.97
2024-04-05T19:54:17.191Z,50.00
2024-04-05T19:56:20.769Z,50.04
2024-04-05T19:58:30.182Z,50.41
2024-04-05T20:00:33.285Z,50.65
2024-04-05T20:02:36.480Z,50.75
2024-04-05T20:04:40.219Z,50.60
2024-04-05T20:06:43.024Z,50.64
2024-04-05T20:08:46.001Z,50.48
2024-04-05T20:10:48.791Z,50.93
2024-04-05T20:12:55.977Z,50.79
2024-04-05T20:14:59.363Z,50.63
2024-04-05T20:17:02.752Z,50.68
2024-04-05T20:19:07.189Z,50.70
2024-04-05T20:21:10.869Z,50.94
2024-04-05T20:23:17.945Z,50.93
2024-04-05T20:25:22.540Z,51.23
2024-04-05T20:27:26.935Z,50.98
2024-04-05T20:29:48.293Z,51.35
2024-04-05T20:32:10.197Z,51.29
2024-04-05T20:34:12.996Z,51.22
2024-04-05T20:36:15.887Z,51.59
2024-04-05T20:38:18.995Z,51.56
2024-04-05T20:40:23.013Z,51.81
2024-04-05T20:42:25.807Z,51.95
2024-04-05T20:44:28.889Z,52.20
2024-04-05T20:46:32.087Z,51.85
2024-04-05T20:48:34.982Z,51.70
2024-04-05T20:50:38.066Z,52.09
2024-04-05T20:52:41.088Z,52.38
2024-04-05T20:54:44.123Z,52.31
2024-04-05T20:56:53.503Z,52.64
2024-04-05T20:58:56.558Z,52.68
2024-04-05T21:00:59.777Z,52.63
2024-04-05T21:03:02.744Z,52.79
2024-04-05T21:05:05.933Z,53.56
2024-04-05T21:07:08.687Z,53.25
2024-04-05T21:09:11.370Z,53.48
2024-04-05T21:11:14.564Z,54.44
2024-04-05T21:13:17.722Z,54.05
2024-04-05T21:15:20.493Z,54.26
2024-04-05T21:17:23.438Z,54.88
2024-04-05T21:19:26.202Z,54.88
2024-04-05T21:21:28.961Z,54.65
2024-04-05T21:23:32.600Z,54.45
2024-04-05T21:25:35.213Z,55.18
2024-04-05T21:27:37.882Z,54.85
2024-04-05T21:29:40.986Z,54.93
2024-04-05T21:31:43.790Z,55.22
2024-04-05T21:33:46.737Z,54.95
2024-04-05T21:35:49.491Z,54.63
2024-04-05T21:37:52.493Z,54.23
2024-04-05T21:39:56.479Z,54.67
2024-04-05T21:41:59.632Z,54.91
2024-04-05T21:44:02.763Z,55.02
2024-04-05T21:46:06.947Z,55.36
2024-04-05T21:48:09.902Z,54.75
2024-04-05T21:50:12.724Z,54.83
2024-04-05T21:52:16.033Z,54.51
2024-04-05T21:54:19.315Z,54.40
2024-04-05T21:56:22.198Z,54.45
2024-04-05T21:58:27.619Z,54.37
2024-04-05T22:00:31.846Z,54.25
2024-04-05T22:02:34.948Z,54.60
2024-04-05T22:04:37.618Z,54.60
2024-04-05T22:06:40.454Z,54.69
2024-04-05T22:08:44.208Z,54.46
2024-04-05T22:10:47.251Z,54.38
2024-04-05T22:12:49.973Z,54.82
2024-04-05T22:14:52.887Z,54.26
2024-04-05T22:16:55.625Z,54.20
2024-04-05T22:18:58.461Z,54.11
2024-04-05T22:21:03.349Z,54.69
2024-04-05T22:23:06.370Z,54.15
2024-04-05T22:25:13.136Z,54.51
2024-04-05T22:27:15.873Z,54.29
2024-04-05T22:29:18.811Z,54.30
2024-04-05T22:31:21.706Z,54.27
2024-04-05T22:33:24.570Z,54.34
2024-04-05T22:35:27.740Z,54.22
2024-04-05T22:37:30.513Z,54.49
2024-04-05T22:39:34.249Z,55.14
2024-04-05T22:41:37.227Z,55.25
2024-04-05T22:43:40.159Z,55.65
2024-04-05T22:45:44.108Z,55.61
2024-04-05T22:47:47.595Z,55.50
2024-04-05T22:49:50.366Z,55.45
2024-04-05T22:51:53.464Z,55.60
2024-04-05T22:53:56.539Z,55.92
2024-04-05T22:55:59.532Z,56.82
2024-04-05T22:58:02.778Z,56.52
2024-04-05T23:00:06.532Z,56.94
2024-04-05T23:02:11.106Z,56.86
2024-04-05T23:04:14.042Z,57.14
2024-04-05T23:06:21.681Z,57.28
2024-04-05T23:08:25.456Z,57.20
2024-04-05T23:10:28.420Z,57.28
2024-04-05T23:12:32.071Z,57.35
2024-04-05T23:14:34.730Z,57.88
2024-04-05T23:16:37.704Z,57.87
2024-04-05T23:18:40.675Z,58.33
2024-04-05T23:20:43.823Z,58.98
2024-04-05T23:22:47.055Z,58.51
2024-04-05T23:24:50.052Z,59.41
2024-04-05T23:26:56.522Z,59.69
2024-04-05T23:28:59.476Z,58.72
2024-04-05T23:31:03.318Z,58.89
2024-04-05T23:33:06.378Z,58.40
2024-04-05T23:35:09.369Z,59.16
2024-04-05T23:37:12.047Z,59.66
2024-04-05T23:39:14.928Z,59.89
2024-04-05T23:41:17.869Z,59.12
2024-04-05T23:43:21.150Z,59.90
2024-04-05T23:45:24.516Z,60.57
2024-04-05T23:47:27.503Z,60.08
2024-04-05T23:49:30.621Z,60.11
2024-04-05T23:51:33.565Z,59.11
2024-04-05T23:53:36.632Z,59.57
2024-04-05T23:55:39.917Z,58.99
2024-04-05T23:57:42.574Z,58.48
2024-04-05T23:59:47.385Z,58.64
